Terminal Aerodrome Forecast
Issued by NWS Wakefield, VA

Home | Current Version | Previous Version | Text Only | Print | Product List | Glossary On
Versions: 1 2 3 4 5 6 7 8 9 10 11 12 13 14 15 16
000
FTUS41 KAKQ 292300
TAFRIC
TAF
KRIC 292336Z 3000/3024 19010KT P6SM SCT070 OVC100
     FM300800 28009KT P6SM SCT050
     FM301400 31015G24KT P6SM BKN050
     FM301800 31022G30KT P6SM BKN040
     FM302200 31017G23KT P6SM SCT040=

USA.gov is the U.S. government's official web portal to all federal, state and local government web resources and services.